Time;durP1;ratioP1;P1;durP2;ratioP2;P2;SDS_P1;SDS_P2;PMS_P1;PMS_P2;Temp;Humidity;BMP_temperature;BMP_pressure;BME280_temperature;BME280_humidity;BME280_pressure;Samples;Min_cycle;Max_cycle;Signal;HPM_P1;HPM_P2
2023/10/17 00:01:34;;;;;;;2.13;0.75;;;6.20;99.90;;;;;;5104564;28;20040;-69
2023/10/17 00:06:42;;;;;;;1.60;0.40;;;6.20;99.90;;;;;;5099963;28;20048;-69
2023/10/17 00:09:08;;;;;;;3.40;0.30;;;6.20;99.90;;;;;;5103092;28;20385;-69
2023/10/17 00:11:51;;;;;;;1.50;0.40;;;6.10;99.90;;;;;;5103676;28;20032;-69
2023/10/17 00:14:17;;;;;;;3.58;0.80;;;6.10;99.90;;;;;;5103221;28;20051;-69
2023/10/17 00:16:43;;;;;;;3.40;0.60;;;6.10;99.90;;;;;;5103945;28;20039;-69
2023/10/17 00:19:09;;;;;;;2.05;0.60;;;6.10;99.90;;;;;;5102789;28;20092;-69
2023/10/17 00:21:36;;;;;;;3.08;0.80;;;6.00;99.90;;;;;;5102218;28;20047;-69
2023/10/17 00:24:04;;;;;;;2.25;0.47;;;6.00;99.90;;;;;;5103518;28;20036;-69
2023/10/17 00:26:31;;;;;;;1.27;0.68;;;6.00;99.90;;;;;;5099575;28;20126;-69
2023/10/17 00:28:56;;;;;;;1.70;0.43;;;6.00;99.90;;;;;;5102787;28;20489;-69
2023/10/17 00:31:22;;;;;;;1.80;0.70;;;6.00;99.90;;;;;;5129328;27;20040;-69
2023/10/17 00:33:57;;;;;;;4.88;0.90;;;6.00;99.90;;;;;;5106189;28;20031;-69
2023/10/17 00:36:24;;;;;;;3.47;0.43;;;6.00;99.90;;;;;;5101657;28;20044;-69
2023/10/17 00:38:49;;;;;;;1.45;0.68;;;6.00;99.90;;;;;;5100915;28;20681;-69
2023/10/17 00:41:27;;;;;;;1.00;0.50;;;6.10;99.90;;;;;;5099797;28;20077;-69
2023/10/17 00:43:53;;;;;;;1.13;0.60;;;6.00;99.90;;;;;;5105776;27;20093;-69
2023/10/17 00:46:19;;;;;;;2.15;0.65;;;6.10;99.90;;;;;;5107368;28;20044;-69
2023/10/17 00:48:47;;;;;;;1.48;0.40;;;6.10;99.90;;;;;;5103355;28;20059;-69
2023/10/17 00:51:19;;;;;;;3.13;0.93;;;6.10;99.90;;;;;;5104273;27;20453;-69
2023/10/17 00:53:46;;;;;;;3.90;0.70;;;6.10;99.90;;;;;;5136814;27;20520;-69
2023/10/17 00:56:13;;;;;;;1.33;0.30;;;6.00;99.90;;;;;;5106751;27;20044;-69
2023/10/17 00:58:39;;;;;;;2.97;0.50;;;6.00;99.90;;;;;;5104359;28;20039;-69
2023/10/17 01:01:20;;;;;;;0.95;0.50;;;6.00;99.90;;;;;;5104248;27;20113;-69
2023/10/17 01:03:47;;;;;;;3.42;0.63;;;6.00;99.90;;;;;;5137310;27;20137;-69
2023/10/17 01:11:57;;;;;;;2.20;0.55;;;6.00;99.90;;;;;;5024363;28;20037;-69
2023/10/17 01:14:23;;;;;;;1.83;0.70;;;5.90;99.90;;;;;;5090307;27;20047;-69
2023/10/17 01:16:52;;;;;;;2.97;0.65;;;5.90;99.90;;;;;;5123177;27;20058;-69
2023/10/17 01:19:21;;;;;;;1.65;0.40;;;5.80;99.90;;;;;;5135870;27;20040;-69
2023/10/17 01:21:48;;;;;;;2.80;0.70;;;5.90;99.90;;;;;;5106081;27;20043;-69
2023/10/17 01:24:14;;;;;;;2.13;0.70;;;5.80;99.90;;;;;;5110007;27;20462;-69
2023/10/17 01:26:43;;;;;;;1.23;0.45;;;5.90;99.90;;;;;;5107228;27;20059;-69
2023/10/17 01:29:12;;;;;;;1.63;0.40;;;5.90;99.90;;;;;;5104824;28;20047;-69
2023/10/17 01:31:44;;;;;;;1.75;0.55;;;6.00;99.90;;;;;;5104745;27;20047;-69
2023/10/17 01:34:11;;;;;;;2.33;0.80;;;5.90;99.90;;;;;;5135512;27;20036;-69
2023/10/17 01:36:38;;;;;;;3.60;0.90;;;5.90;99.90;;;;;;5106260;27;20169;-69
2023/10/17 01:39:08;;;;;;;1.33;0.45;;;5.80;99.90;;;;;;5104672;27;20062;-69
2023/10/17 01:41:34;;;;;;;2.97;0.68;;;5.80;99.90;;;;;;5101273;28;20039;-69
2023/10/17 01:44:01;;;;;;;2.20;0.70;;;5.70;99.90;;;;;;5103471;27;20118;-69
2023/10/17 01:46:29;;;;;;;2.72;0.80;;;5.70;99.90;;;;;;5102370;27;20126;-69
2023/10/17 01:49:10;;;;;;;3.30;0.70;;;5.70;99.90;;;;;;5104849;28;20038;-69
2023/10/17 01:51:36;;;;;;;4.70;1.23;;;5.70;99.90;;;;;;5134889;27;20497;-69
2023/10/17 01:54:07;;;;;;;3.92;1.58;;;5.70;99.90;;;;;;5105183;28;20050;-69
2023/10/17 01:56:33;;;;;;;2.35;1.15;;;5.70;99.90;;;;;;5101922;27;20047;-69
2023/10/17 01:59:10;;;;;;;1.90;1.00;;;5.70;99.90;;;;;;5103071;28;20051;-69
2023/10/17 02:01:36;;;;;;;4.15;0.80;;;5.70;99.90;;;;;;5106109;27;20111;-69
2023/10/17 02:04:03;;;;;;;2.88;0.70;;;5.70;99.90;;;;;;5105726;28;20122;-69
2023/10/17 02:06:35;;;;;;;3.03;1.05;;;5.70;99.90;;;;;;5086510;27;20046;-69
2023/10/17 02:09:06;;;;;;;2.53;0.60;;;5.60;99.90;;;;;;5106654;27;20451;-69
2023/10/17 02:11:40;;;;;;;3.45;0.60;;;5.60;99.90;;;;;;5135561;27;20047;-69
2023/10/17 02:14:08;;;;;;;1.77;0.70;;;5.50;99.90;;;;;;5102156;28;20051;-69
2023/10/17 02:16:35;;;;;;;6.03;1.10;;;5.50;99.90;;;;;;5104225;27;20071;-69
2023/10/17 02:19:07;;;;;;;2.08;0.52;;;5.40;99.90;;;;;;5101884;28;20044;-69
2023/10/17 02:21:38;;;;;;;1.30;0.40;;;5.40;99.90;;;;;;5100276;27;20050;-69
2023/10/17 02:24:07;;;;;;;1.55;0.50;;;5.30;99.90;;;;;;5103795;27;20066;-69
2023/10/17 02:26:42;;;;;;;0.50;0.40;;;5.30;99.90;;;;;;5134177;27;20077;-69
2023/10/17 02:29:11;;;;;;;2.00;0.73;;;5.30;99.90;;;;;;5100203;27;20040;-68
2023/10/17 02:31:37;;;;;;;1.60;0.77;;;5.30;99.90;;;;;;5103713;27;20538;-69
2023/10/17 02:34:03;;;;;;;1.58;1.00;;;5.20;99.90;;;;;;5133156;27;20047;-69
2023/10/17 02:36:29;;;;;;;1.90;1.10;;;5.40;99.90;;;;;;5133884;27;20044;-68
2023/10/17 02:38:54;;;;;;;2.75;1.55;;;5.20;99.90;;;;;;5107767;27;20047;-68
2023/10/17 02:41:22;;;;;;;1.77;1.00;;;5.20;99.90;;;;;;5105697;27;20067;-69
2023/10/17 02:43:52;;;;;;;1.35;0.80;;;5.20;99.90;;;;;;5107074;27;20076;-69
2023/10/17 02:46:18;;;;;;;0.52;0.20;;;5.20;99.90;;;;;;5102406;28;20040;-69
2023/10/17 02:48:45;;;;;;;2.83;0.50;;;5.20;99.90;;;;;;5101815;27;20062;-69
2023/10/17 02:53:53;;;;;;;2.53;0.93;;;5.10;99.90;;;;;;5101151;28;20082;-68
2023/10/17 02:56:23;;;;;;;1.52;0.80;;;5.00;99.90;;;;;;5105147;27;20039;-68
2023/10/17 02:59:10;;;;;;;3.38;1.45;;;5.00;99.90;;;;;;5100822;27;20043;-69
2023/10/17 03:01:39;;;;;;;2.85;1.55;;;4.90;99.90;;;;;;5101087;27;20051;-69
2023/10/17 03:04:13;;;;;;;2.65;1.98;;;4.90;99.90;;;;;;5101312;28;20046;-69
2023/10/17 03:06:44;;;;;;;5.55;1.70;;;5.00;99.90;;;;;;5104433;27;20031;-69
2023/10/17 03:09:26;;;;;;;7.00;1.75;;;5.10;99.90;;;;;;5101639;27;20053;-69
2023/10/17 03:14:39;;;;;;;3.40;1.70;;;5.10;99.90;;;;;;5104803;27;20043;-68
2023/10/17 03:17:05;;;;;;;2.20;1.17;;;5.20;99.90;;;;;;5132917;27;20048;-68
2023/10/17 03:19:33;;;;;;;4.88;1.75;;;5.20;99.90;;;;;;5134972;27;20127;-68
2023/10/17 03:22:16;;;;;;;5.85;1.77;;;5.20;99.90;;;;;;5100126;28;20050;-68
2023/10/17 03:24:46;;;;;;;2.53;1.42;;;5.20;99.90;;;;;;5132875;27;20043;-68
2023/10/17 03:27:23;;;;;;;2.55;1.23;;;5.30;99.90;;;;;;5104802;27;20457;-68
2023/10/17 03:29:49;;;;;;;2.25;0.70;;;5.20;99.90;;;;;;5100945;28;20035;-68
2023/10/17 03:32:15;;;;;;;1.67;1.10;;;5.30;99.90;;;;;;5103992;28;20081;-68
2023/10/17 03:34:45;;;;;;;7.40;1.23;;;5.20;99.90;;;;;;5087779;28;20050;-68
2023/10/17 03:39:55;;;;;;;2.30;0.70;;;5.10;99.90;;;;;;5100213;28;20039;-68
2023/10/17 03:45:12;;;;;;;2.13;1.13;;;5.10;99.90;;;;;;5129858;27;20047;-68
2023/10/17 03:48:28;;;;;;;;;;;5.00;99.90;;;;;;5104873;28;20047;-68
2023/10/17 03:50:48;;;;;;;3.80;0.90;;;4.90;99.90;;;;;;5094088;28;19916;-68
2023/10/17 03:54:06;;;;;;;5.80;1.45;;;4.80;99.90;;;;;;5103169;28;20047;-68
2023/10/17 03:56:00;;;;;;;3.47;1.25;;;4.90;99.90;;;;;;5092515;28;20052;-68
2023/10/17 04:01:07;;;;;;;3.72;1.58;;;5.00;99.90;;;;;;5100406;28;20096;-68
2023/10/17 04:03:35;;;;;;;2.55;1.55;;;5.00;99.90;;;;;;5102210;28;20092;-68
2023/10/17 04:06:34;;;;;;;4.30;1.70;;;5.10;99.90;;;;;;5134325;27;20048;-68
2023/10/17 04:08:49;;;;;;;4.95;1.80;;;5.10;99.90;;;;;;5098384;28;20108;-68
2023/10/17 04:13:53;;;;;;;1.92;0.90;;;5.20;99.90;;;;;;5134501;27;20040;-68
2023/10/17 04:16:38;;;;;;;3.08;1.17;;;5.20;99.90;;;;;;5104573;28;20043;-68
2023/10/17 04:19:05;;;;;;;2.70;0.90;;;5.30;99.90;;;;;;5105401;28;20051;-68
2023/10/17 04:21:32;;;;;;;4.22;0.93;;;5.30;99.90;;;;;;5104082;27;20469;-68
2023/10/17 04:24:06;;;;;;;2.15;0.63;;;5.30;99.90;;;;;;5109269;27;20046;-68
2023/10/17 04:26:35;;;;;;;3.05;1.02;;;5.30;99.90;;;;;;5103353;28;20036;-68
2023/10/17 04:29:22;;;;;;;1.42;1.00;;;5.30;99.90;;;;;;5107276;28;20392;-68
2023/10/17 04:31:55;;;;;;;5.07;1.02;;;5.30;99.90;;;;;;5089565;28;20503;-69
2023/10/17 04:34:26;;;;;;;3.00;1.00;;;5.40;99.90;;;;;;5106209;27;20047;-68
2023/10/17 04:36:53;;;;;;;4.22;1.25;;;5.30;99.90;;;;;;5102665;27;20040;-68
2023/10/17 04:39:25;;;;;;;1.67;0.93;;;5.40;99.90;;;;;;5104857;27;20042;-68
2023/10/17 04:44:36;;;;;;;4.82;1.00;;;5.50;99.90;;;;;;5134432;27;20217;-67
2023/10/17 04:49:30;;;;;;;3.17;1.40;;;5.50;99.90;;;;;;5102563;27;20075;-68
2023/10/17 04:54:39;;;;;;;5.55;1.65;;;5.60;99.90;;;;;;5104309;27;20174;-68
2023/10/17 04:57:07;;;;;;;4.30;1.40;;;5.70;99.90;;;;;;5101497;27;20494;-68
2023/10/17 06:17:20;;;;;;;3.85;2.22;;;6.40;99.90;;;;;;5134403;27;20044;-68
2023/10/17 06:19:46;;;;;;;3.53;2.10;;;6.40;99.90;;;;;;5100759;28;20054;-68
2023/10/17 06:32:48;;;;;;;5.45;2.75;;;6.50;99.90;;;;;;5096564;28;20040;-68
2023/10/17 06:35:20;;;;;;;7.15;2.83;;;6.60;99.90;;;;;;5100086;27;20862;-68
2023/10/17 06:37:46;;;;;;;2.88;2.00;;;6.60;99.90;;;;;;5088194;28;20048;-68
2023/10/17 06:40:15;;;;;;;4.93;2.90;;;6.60;99.90;;;;;;5099010;28;20135;-68
2023/10/17 06:42:58;;;;;;;7.32;2.78;;;6.70;99.90;;;;;;5132791;27;20036;-68
2023/10/17 06:45:24;;;;;;;3.70;2.33;;;6.70;99.90;;;;;;5098465;28;20078;-68
2023/10/17 06:47:49;;;;;;;3.65;2.17;;;6.80;99.90;;;;;;5104627;28;20485;-68
2023/10/17 06:55:21;;;;;;;5.95;2.22;;;6.90;99.90;;;;;;5132915;27;20047;-68
2023/10/17 06:57:50;;;;;;;3.80;1.98;;;7.00;99.90;;;;;;5097376;28;20126;-68
2023/10/17 07:00:24;;;;;;;5.63;2.45;;;7.10;99.90;;;;;;5085775;28;20385;-68
2023/10/17 07:02:51;;;;;;;9.50;2.70;;;7.10;99.90;;;;;;5097722;28;20044;-69
2023/10/17 07:05:22;;;;;;;5.05;2.20;;;7.10;99.90;;;;;;5096080;28;20073;-68
2023/10/17 07:07:54;;;;;;;5.20;2.47;;;7.20;99.90;;;;;;5114173;27;20039;-68
2023/10/17 07:13:27;;;;;;;4.25;2.15;;;7.30;99.90;;;;;;5103592;27;20051;-68
2023/10/17 07:15:54;;;;;;;4.90;2.30;;;7.30;99.90;;;;;;5095201;28;20135;-68
2023/10/17 07:23:44;;;;;;;9.85;2.58;;;7.60;99.90;;;;;;5099417;28;20039;-68
2023/10/17 07:26:15;;;;;;;6.72;2.00;;;7.70;99.90;;;;;;5099899;28;20032;-68
2023/10/17 07:28:44;;;;;;;3.25;1.90;;;7.70;99.90;;;;;;5100145;28;20485;-68
2023/10/17 07:31:13;;;;;;;7.68;2.15;;;7.80;99.90;;;;;;5100431;28;20106;-68
2023/10/17 07:33:44;;;;;;;5.38;2.50;;;7.90;99.90;;;;;;5099243;28;20398;-68
2023/10/17 07:36:15;;;;;;;5.25;1.85;;;8.00;99.90;;;;;;5101377;28;20568;-68
2023/10/17 07:38:43;;;;;;;5.00;2.45;;;8.00;99.90;;;;;;5097284;28;20754;-69
2023/10/17 07:41:13;;;;;;;5.28;2.20;;;8.10;99.90;;;;;;5096986;28;20119;-69
2023/10/17 07:43:45;;;;;;;4.88;2.05;;;8.20;99.90;;;;;;5099465;28;20055;-69
2023/10/17 07:46:17;;;;;;;3.13;1.50;;;8.30;99.90;;;;;;5094837;28;20036;-68
2023/10/17 07:48:48;;;;;;;8.45;2.38;;;8.40;99.90;;;;;;5083915;28;20139;-68
2023/10/17 07:51:15;;;;;;;5.60;2.38;;;8.50;99.90;;;;;;5130091;27;20073;-69
2023/10/17 07:53:45;;;;;;;3.63;2.10;;;8.60;99.90;;;;;;5094846;27;20082;-68
2023/10/17 07:56:20;;;;;;;4.43;2.25;;;8.70;99.90;;;;;;5092082;28;20040;-69
2023/10/17 07:59:04;;;;;;;5.65;2.88;;;8.80;99.90;;;;;;5127807;27;20059;-69
2023/10/17 08:01:58;;;;;;;6.65;3.25;;;8.90;99.90;;;;;;5094265;28;20036;-69
2023/10/17 08:04:24;;;;;;;5.40;2.45;;;8.90;99.90;;;;;;5095945;28;20498;-69
2023/10/17 08:06:50;;;;;;;5.55;2.42;;;8.90;99.90;;;;;;5102308;28;21936;-69
2023/10/17 08:11:54;;;;;;;4.90;2.50;;;9.00;99.90;;;;;;5098039;28;20084;-69
2023/10/17 08:14:31;;;;;;;4.00;2.15;;;9.00;99.90;;;;;;5095667;28;20119;-69
2023/10/17 08:16:58;;;;;;;3.85;1.92;;;9.10;99.90;;;;;;5097870;28;20039;-68
2023/10/17 08:19:29;;;;;;;4.72;2.15;;;9.10;99.90;;;;;;5100501;28;20051;-68
2023/10/17 08:24:34;;;;;;;3.35;1.60;;;9.20;99.90;;;;;;5098682;28;20043;-69
2023/10/17 08:29:48;;;;;;;4.40;1.58;;;9.20;99.90;;;;;;5099190;28;20130;-69
2023/10/17 08:35:03;;;;;;;3.53;1.60;;;9.60;99.90;;;;;;5067821;28;20432;-69
2023/10/17 08:37:30;;;;;;;4.90;1.48;;;9.30;99.90;;;;;;5097327;28;20119;-69
2023/10/17 08:39:57;;;;;;;4.05;1.40;;;9.80;99.90;;;;;;5132110;27;20470;-68
2023/10/17 08:44:55;;;;;;;4.05;1.23;;;9.30;99.90;;;;;;5092589;28;20044;-69
2023/10/17 08:47:25;;;;;;;3.25;1.30;;;9.40;99.90;;;;;;5096590;28;20089;-69
2023/10/17 08:49:51;;;;;;;3.33;1.45;;;9.40;99.90;;;;;;5097256;28;20469;-68
2023/10/17 08:52:24;;;;;;;1.52;1.02;;;9.50;99.90;;;;;;5100545;28;20036;-69
2023/10/17 08:54:51;;;;;;;3.10;1.27;;;9.50;99.90;;;;;;5097777;28;20040;-69
2023/10/17 08:57:17;;;;;;;2.63;1.42;;;9.60;99.90;;;;;;5110527;28;20044;-68
2023/10/17 09:02:28;;;;;;;4.72;1.90;;;9.70;99.90;;;;;;5093922;28;20367;-68
2023/10/17 09:05:27;;;;;;;3.13;0.98;;;9.70;99.90;;;;;;5101673;28;20043;-69
2023/10/17 09:07:56;;;;;;;4.20;1.33;;;9.70;99.90;;;;;;5085863;27;20048;-69
2023/10/17 09:10:28;;;;;;;3.65;0.90;;;9.80;99.90;;;;;;5102485;27;20084;-69
2023/10/17 09:15:55;;;;;;;3.60;0.80;;;9.80;99.90;;;;;;5103599;27;20465;-69
2023/10/17 09:18:28;;;;;;;5.80;1.15;;;9.90;99.90;;;;;;5098530;27;20043;-69
2023/10/17 09:20:55;;;;;;;2.70;1.00;;;9.90;99.90;;;;;;5133330;27;20040;-69
2023/10/17 09:23:30;;;;;;;4.13;1.08;;;10.00;99.90;;;;;;5106434;27;20448;-69
2023/10/17 09:25:58;;;;;;;3.80;1.10;;;10.00;99.90;;;;;;5099830;28;20036;-69
2023/10/17 09:28:25;;;;;;;1.88;0.80;;;10.00;99.90;;;;;;5100852;27;20518;-69
2023/10/17 09:31:08;;;;;;;2.13;0.73;;;10.10;99.90;;;;;;5096377;28;20080;-69
2023/10/17 09:33:35;;;;;;;3.80;1.90;;;10.10;99.90;;;;;;5104607;27;20059;-69
2023/10/17 09:36:04;;;;;;;3.58;0.98;;;10.10;99.90;;;;;;5102662;27;20044;-69
2023/10/17 09:38:32;;;;;;;2.47;0.93;;;10.20;99.90;;;;;;5100954;27;20040;-69
2023/10/17 09:41:01;;;;;;;2.85;0.73;;;10.20;99.90;;;;;;5099174;28;20120;-68
2023/10/17 09:43:29;;;;;;;1.65;0.50;;;10.30;99.90;;;;;;5136679;27;20509;-69
2023/10/17 09:46:02;;;;;;;4.95;0.70;;;10.30;99.90;;;;;;5120860;27;20046;-69
2023/10/17 09:48:34;;;;;;;3.75;0.82;;;10.30;99.90;;;;;;5098958;27;20051;-68
2023/10/17 09:51:01;;;;;;;2.03;0.70;;;10.40;99.90;;;;;;5130570;27;20103;-69
2023/10/17 09:53:31;;;;;;;7.10;0.73;;;10.40;99.90;;;;;;5099273;28;20039;-69
2023/10/17 09:56:00;;;;;;;2.45;0.40;;;10.40;99.90;;;;;;5099091;27;20039;-69
2023/10/17 09:58:33;;;;;;;2.42;0.98;;;10.50;99.90;;;;;;5099903;28;20044;-69
2023/10/17 10:01:27;;;;;;;4.00;0.60;;;10.40;99.90;;;;;;5101260;28;20050;-69
2023/10/17 10:03:56;;;;;;;2.38;0.60;;;10.50;99.90;;;;;;5098482;27;20108;-69
2023/10/17 10:06:30;;;;;;;3.08;0.50;;;10.60;99.90;;;;;;5104632;27;20035;-69
2023/10/17 10:09:17;;;;;;;1.23;0.25;;;10.60;99.90;;;;;;5098677;27;20124;-69
2023/10/17 10:11:48;;;;;;;3.75;0.30;;;10.70;99.90;;;;;;5101966;27;20077;-69
2023/10/17 10:14:23;;;;;;;6.63;0.50;;;10.70;99.90;;;;;;5100843;27;20405;-69
2023/10/17 10:17:02;;;;;;;3.40;0.57;;;10.70;99.90;;;;;;5098043;27;20039;-69
2023/10/17 10:19:40;;;;;;;1.42;0.30;;;10.70;99.90;;;;;;5099883;27;20429;-69
2023/10/17 10:22:07;;;;;;;1.58;0.40;;;10.80;99.90;;;;;;5102651;27;20039;-69
2023/10/17 10:24:34;;;;;;;3.80;0.45;;;10.80;99.90;;;;;;5103402;27;20043;-69
2023/10/17 10:27:15;;;;;;;3.67;0.45;;;10.90;99.90;;;;;;5097760;28;20039;-69
2023/10/17 10:29:47;;;;;;;2.83;0.30;;;11.00;99.90;;;;;;5098948;27;20512;-69
2023/10/17 10:32:25;;;;;;;2.13;0.63;;;11.10;99.90;;;;;;5095314;28;20040;-69
2023/10/17 10:34:51;;;;;;;1.95;0.47;;;11.20;99.90;;;;;;5132375;27;20039;-69
2023/10/17 10:37:18;;;;;;;2.53;0.32;;;11.30;99.90;;;;;;5095708;27;20122;-69
2023/10/17 10:40:26;;;;;;;2.30;0.30;;;11.40;99.90;;;;;;5113393;27;20577;-69
2023/10/17 10:42:53;;;;;;;3.05;0.70;;;11.60;99.90;;;;;;5099302;28;20357;-70
2023/10/17 10:45:31;;;;;;;1.95;0.30;;;11.70;99.90;;;;;;5100914;27;20044;-69
2023/10/17 10:48:01;;;;;;;1.55;0.30;;;11.80;99.90;;;;;;5113740;27;20039;-69
2023/10/17 10:50:32;;;;;;;2.30;0.73;;;12.00;99.90;;;;;;5099828;27;20055;-69
2023/10/17 10:53:01;;;;;;;3.15;0.55;;;12.20;99.90;;;;;;5128235;27;20047;-69
2023/10/17 10:55:27;;;;;;;1.52;0.22;;;12.40;99.90;;;;;;5101070;28;20039;-69
2023/10/17 10:57:54;;;;;;;1.95;0.20;;;12.40;99.90;;;;;;5096615;27;20175;-69
2023/10/17 11:00:20;;;;;;;1.45;0.55;;;12.60;99.90;;;;;;5094960;28;20497;-69
2023/10/17 11:02:46;;;;;;;1.92;0.30;;;12.70;99.90;;;;;;5094602;28;20108;-69
2023/10/17 11:05:15;;;;;;;2.00;0.35;;;12.70;99.90;;;;;;5130286;27;20043;-69
2023/10/17 11:07:41;;;;;;;1.95;0.30;;;12.80;99.90;;;;;;5099331;27;20049;-70
2023/10/17 11:10:10;;;;;;;2.28;0.68;;;13.00;99.90;;;;;;5099215;28;20047;-70
2023/10/17 11:12:37;;;;;;;1.80;0.30;;;13.10;99.90;;;;;;5099243;28;20086;-70
2023/10/17 11:15:18;;;;;;;0.60;0.20;;;13.20;99.90;;;;;;5099542;27;20478;-70
2023/10/17 11:17:45;;;;;;;1.38;0.20;;;13.30;99.90;;;;;;5099735;27;20131;-69
2023/10/17 11:20:18;;;;;;;2.38;0.30;;;13.30;99.90;;;;;;5097630;28;20047;-69
2023/10/17 11:22:45;;;;;;;1.55;0.38;;;13.40;99.90;;;;;;5099350;27;20434;-69
2023/10/17 11:25:21;;;;;;;3.13;0.57;;;13.40;99.90;;;;;;5096265;28;20493;-69
2023/10/17 11:27:55;;;;;;;1.55;0.30;;;13.40;99.90;;;;;;5097811;28;20074;-69
2023/10/17 11:30:32;;;;;;;2.63;0.77;;;13.50;99.90;;;;;;5097086;28;20248;-69
2023/10/17 11:33:05;;;;;;;1.10;0.30;;;13.60;99.90;;;;;;5128181;27;20050;-69
2023/10/17 11:35:34;;;;;;;2.20;0.40;;;13.80;99.90;;;;;;5098807;28;20044;-69
2023/10/17 11:38:00;;;;;;;3.00;0.40;;;13.90;99.90;;;;;;5097718;28;20088;-69
2023/10/17 11:40:43;;;;;;;3.03;0.30;;;13.90;99.90;;;;;;5097220;28;20038;-69
2023/10/17 11:43:20;;;;;;;1.50;0.20;;;13.90;99.90;;;;;;5098138;27;20593;-70
2023/10/17 11:45:46;;;;;;;1.63;0.30;;;14.00;99.90;;;;;;5111272;27;20640;-69
2023/10/17 11:48:39;;;;;;;1.80;0.40;;;14.00;99.90;;;;;;5093644;28;20661;-69
2023/10/17 11:51:12;;;;;;;2.97;0.40;;;14.00;99.90;;;;;;5092424;28;20054;-70
2023/10/17 11:54:04;;;;;;;2.20;0.30;;;14.00;99.90;;;;;;5093285;28;20067;-70
2023/10/17 11:56:37;;;;;;;3.30;0.30;;;13.90;99.90;;;;;;5098164;28;20177;-69
2023/10/17 11:59:06;;;;;;;1.75;0.40;;;13.90;99.90;;;;;;5095384;28;20052;-69
2023/10/17 12:01:33;;;;;;;2.92;0.30;;;14.00;99.90;;;;;;5094383;28;20050;-69
2023/10/17 12:04:00;;;;;;;1.95;0.50;;;14.10;99.90;;;;;;5091684;28;20394;-69
2023/10/17 12:06:26;;;;;;;3.22;0.22;;;14.20;99.90;;;;;;5093552;28;20046;-69
2023/10/17 12:08:55;;;;;;;1.85;0.32;;;14.20;99.90;;;;;;5094970;28;20074;-69
2023/10/17 12:11:24;;;;;;;1.63;0.17;;;14.20;99.90;;;;;;5095115;28;20044;-70
2023/10/17 12:13:53;;;;;;;2.70;0.38;;;14.10;99.90;;;;;;5099495;28;20158;-70
2023/10/17 12:16:25;;;;;;;2.20;0.30;;;14.10;99.90;;;;;;5116545;27;20044;-69
2023/10/17 12:18:52;;;;;;;1.65;0.25;;;14.00;99.90;;;;;;5096389;28;20137;-70
2023/10/17 12:21:18;;;;;;;1.65;0.28;;;13.90;99.90;;;;;;5110620;27;20443;-70
2023/10/17 12:23:44;;;;;;;1.00;0.30;;;13.90;99.90;;;;;;5132661;27;20031;-70
2023/10/17 12:26:19;;;;;;;1.23;0.25;;;13.80;99.90;;;;;;5092683;28;20126;-69
2023/10/17 12:28:45;;;;;;;1.17;0.30;;;13.80;99.90;;;;;;5098561;28;20056;-70
2023/10/17 12:31:16;;;;;;;1.05;0.20;;;14.00;99.90;;;;;;5094829;28;20039;-70
2023/10/17 12:33:42;;;;;;;2.40;0.40;;;13.80;99.90;;;;;;5093734;28;20074;-70
2023/10/17 12:36:08;;;;;;;0.65;0.20;;;13.80;99.90;;;;;;5099026;28;20382;-70
2023/10/17 12:38:33;;;;;;;1.77;0.30;;;13.80;99.90;;;;;;5109646;27;20058;-70
2023/10/17 12:41:08;;;;;;;1.52;0.20;;;13.80;99.90;;;;;;5095902;27;20066;-68
2023/10/17 12:43:35;;;;;;;0.85;0.25;;;13.90;99.90;;;;;;5096639;28;20122;-68
2023/10/17 12:46:02;;;;;;;4.60;0.80;;;13.90;99.90;;;;;;5098070;28;20078;-68
2023/10/17 12:48:28;;;;;;;2.65;0.38;;;14.00;99.90;;;;;;5095342;27;20052;-68
2023/10/17 12:50:54;;;;;;;3.17;0.30;;;13.90;99.90;;;;;;5095399;27;20556;-68
2023/10/17 12:53:19;;;;;;;1.80;0.40;;;13.90;99.90;;;;;;5102243;28;20039;-68
2023/10/17 12:55:45;;;;;;;2.60;0.50;;;14.00;99.90;;;;;;5104616;27;20083;-68
2023/10/17 12:58:11;;;;;;;1.98;0.30;;;13.90;99.90;;;;;;5103502;27;20047;-68
2023/10/17 13:00:41;;;;;;;4.05;0.77;;;13.90;99.90;;;;;;5099123;28;20047;-68
2023/10/17 13:03:07;;;;;;;2.60;1.05;;;14.00;99.90;;;;;;5093101;27;20515;-68
2023/10/17 13:05:33;;;;;;;0.63;0.30;;;13.90;99.90;;;;;;5095753;27;20040;-68
2023/10/17 13:07:58;;;;;;;2.55;0.47;;;13.80;99.90;;;;;;5132237;27;20467;-68
2023/10/17 13:10:26;;;;;;;1.30;0.30;;;13.80;99.90;;;;;;5100302;28;20036;-68
2023/10/17 13:12:52;;;;;;;3.53;0.70;;;13.70;99.90;;;;;;5102140;28;20059;-68
2023/10/17 13:15:17;;;;;;;2.92;0.75;;;14.00;99.90;;;;;;5102160;28;20054;-69
2023/10/17 13:17:52;;;;;;;1.55;0.40;;;13.70;99.90;;;;;;5096235;27;20435;-69
2023/10/17 13:20:22;;;;;;;2.85;0.70;;;13.70;99.90;;;;;;5132580;27;20054;-69
2023/10/17 13:22:47;;;;;;;4.18;0.40;;;13.70;99.90;;;;;;5096269;28;20841;-69
2023/10/17 13:25:14;;;;;;;2.58;0.40;;;13.60;99.90;;;;;;5100869;28;20044;-69
2023/10/17 13:27:40;;;;;;;2.42;0.45;;;13.60;99.90;;;;;;5100362;28;20036;-68
2023/10/17 13:30:06;;;;;;;1.85;0.52;;;13.50;99.90;;;;;;5095450;28;20039;-68
2023/10/17 13:32:32;;;;;;;2.90;0.52;;;13.40;99.90;;;;;;5098421;28;20051;-68
2023/10/17 13:34:59;;;;;;;1.55;0.47;;;13.40;99.90;;;;;;5098665;28;20035;-68
2023/10/17 13:37:27;;;;;;;4.20;1.17;;;13.20;99.90;;;;;;5098994;28;20044;-68
2023/10/17 13:39:53;;;;;;;1.98;0.55;;;13.20;99.90;;;;;;5096906;28;20447;-69
2023/10/17 13:42:19;;;;;;;1.60;0.50;;;13.10;99.90;;;;;;5096674;28;20042;-68
2023/10/17 13:44:44;;;;;;;2.97;0.45;;;13.20;99.90;;;;;;5114652;27;20044;-69
2023/10/17 13:47:10;;;;;;;5.07;0.60;;;13.00;99.90;;;;;;5095415;28;20035;-69
2023/10/17 13:49:36;;;;;;;1.45;0.45;;;12.90;99.90;;;;;;5122488;27;20043;-68
2023/10/17 13:52:03;;;;;;;1.05;0.30;;;12.80;99.90;;;;;;5094011;28;20410;-68
2023/10/17 13:54:34;;;;;;;2.72;0.52;;;12.70;99.90;;;;;;5098963;28;20043;-68
2023/10/17 13:57:00;;;;;;;2.38;1.27;;;12.70;99.90;;;;;;5099822;28;20044;-68
2023/10/17 13:59:38;;;;;;;1.80;0.30;;;12.70;99.90;;;;;;5116395;27;20132;-68
2023/10/17 14:02:08;;;;;;;2.80;0.50;;;12.60;99.90;;;;;;5101437;28;20063;-68
2023/10/17 14:04:37;;;;;;;2.42;1.00;;;12.50;99.90;;;;;;5102752;27;20498;-68
2023/10/17 14:07:04;;;;;;;2.47;0.50;;;12.50;99.90;;;;;;5102243;28;20097;-68
2023/10/17 14:09:30;;;;;;;2.67;1.00;;;12.40;99.90;;;;;;5101573;27;20048;-68
2023/10/17 14:11:56;;;;;;;1.38;0.50;;;12.40;99.90;;;;;;5100666;28;20053;-68
2023/10/17 14:14:25;;;;;;;3.22;0.40;;;12.30;99.90;;;;;;5100699;28;20101;-68
2023/10/17 14:16:51;;;;;;;2.33;0.40;;;12.40;99.90;;;;;;5098299;27;20071;-68
2023/10/17 14:22:04;;;;;;;2.08;0.32;;;12.30;99.90;;;;;;5102570;27;20081;-69
2023/10/17 14:24:49;;;;;;;4.20;0.60;;;12.30;99.90;;;;;;5097669;27;20551;-69
2023/10/17 14:27:20;;;;;;;2.23;0.30;;;12.20;99.90;;;;;;5103862;28;20039;-69
2023/10/17 14:29:47;;;;;;;1.58;0.50;;;12.20;99.90;;;;;;5096710;28;20641;-69
2023/10/17 14:32:17;;;;;;;1.92;0.60;;;12.20;99.90;;;;;;5095883;28;20048;-69
2023/10/17 14:34:44;;;;;;;2.83;0.70;;;12.10;99.90;;;;;;5091273;27;20401;-68
2023/10/17 14:37:10;;;;;;;0.90;0.50;;;12.10;99.90;;;;;;5130086;27;20047;-68
2023/10/17 14:39:36;;;;;;;2.33;0.43;;;12.00;99.90;;;;;;5093228;28;20052;-68
2023/10/17 14:42:03;;;;;;;1.50;0.30;;;12.00;99.90;;;;;;5096050;27;20041;-68
2023/10/17 14:44:29;;;;;;;2.72;0.57;;;12.00;99.90;;;;;;5125332;27;20040;-68
2023/10/17 14:46:57;;;;;;;2.42;0.60;;;12.00;99.90;;;;;;5128969;27;20036;-68
2023/10/17 14:49:24;;;;;;;2.58;0.40;;;11.90;99.90;;;;;;5093025;27;20063;-68
2023/10/17 14:51:50;;;;;;;2.05;0.38;;;11.90;99.90;;;;;;5090428;27;20040;-68
2023/10/17 14:54:15;;;;;;;1.58;0.40;;;11.80;99.90;;;;;;5092653;28;20343;-68
2023/10/17 14:56:42;;;;;;;2.22;0.40;;;11.80;99.90;;;;;;5095281;28;20040;-68
2023/10/17 14:59:08;;;;;;;2.35;0.47;;;11.80;99.90;;;;;;5094290;28;20126;-68
2023/10/17 15:01:35;;;;;;;3.92;0.60;;;11.80;99.90;;;;;;5094353;28;20406;-68
2023/10/17 15:04:00;;;;;;;2.88;1.00;;;11.70;99.90;;;;;;5092618;28;20104;-68
2023/10/17 15:06:27;;;;;;;2.15;0.40;;;11.70;99.90;;;;;;5093117;28;20044;-68
2023/10/17 15:08:53;;;;;;;2.50;0.88;;;11.70;99.90;;;;;;5092531;28;20040;-68
2023/10/17 15:11:20;;;;;;;1.50;0.55;;;11.60;99.90;;;;;;5097741;27;20052;-68
2023/10/17 15:13:46;;;;;;;3.05;0.80;;;11.60;99.90;;;;;;5098099;28;20346;-68
2023/10/17 15:16:19;;;;;;;2.38;0.60;;;11.60;99.90;;;;;;5092520;28;20039;-68
2023/10/17 15:18:46;;;;;;;7.43;0.80;;;11.50;99.90;;;;;;5096170;28;20122;-68
2023/10/17 15:21:13;;;;;;;2.92;0.50;;;11.50;99.90;;;;;;5094893;28;20565;-71
2023/10/17 15:23:42;;;;;;;2.30;0.68;;;11.40;99.90;;;;;;5092722;28;20035;-69
2023/10/17 15:26:11;;;;;;;3.50;0.90;;;11.40;99.90;;;;;;5095768;28;20051;-69
2023/10/17 15:28:41;;;;;;;3.25;0.60;;;11.30;99.90;;;;;;5095230;28;20085;-69
2023/10/17 15:31:08;;;;;;;2.80;0.98;;;11.30;99.90;;;;;;5095068;28;20054;-69
2023/10/17 15:33:34;;;;;;;3.65;0.70;;;11.20;99.90;;;;;;5093727;28;20442;-69
2023/10/17 15:36:03;;;;;;;2.97;1.00;;;11.20;99.90;;;;;;5094943;28;20050;-69
2023/10/17 15:38:30;;;;;;;4.25;0.70;;;11.20;99.90;;;;;;5100384;28;20044;-69
2023/10/17 15:40:57;;;;;;;1.98;0.77;;;11.00;99.90;;;;;;5100349;28;20078;-69
2023/10/17 15:43:24;;;;;;;2.40;0.82;;;11.10;99.90;;;;;;5103512;28;20039;-69